createdAt,value
2023-01-09T00:02:59.274Z,4.68
2023-01-09T00:07:00.777Z,4.63
2023-01-09T00:11:02.353Z,4.59
2023-01-09T00:15:05.104Z,4.68
2023-01-09T00:19:06.677Z,4.63
2023-01-09T00:23:08.158Z,4.52
2023-01-09T00:27:09.687Z,4.54
2023-01-09T00:31:12.435Z,4.51
2023-01-09T00:35:16.785Z,4.54
2023-01-09T00:39:18.183Z,4.67
2023-01-09T00:43:20.671Z,4.63
2023-01-09T00:47:37.198Z,4.49
2023-01-09T00:51:41.296Z,4.33
2023-01-09T00:55:42.770Z,4.50
2023-01-09T00:59:44.604Z,4.49
2023-01-09T01:03:46.074Z,4.50
2023-01-09T01:07:47.574Z,4.39
2023-01-09T01:11:48.965Z,4.52
2023-01-09T01:15:50.496Z,4.58
2023-01-09T01:19:51.910Z,4.55
2023-01-09T01:23:53.315Z,4.50
2023-01-09T01:27:54.766Z,4.46
2023-01-09T01:31:56.435Z,4.55
2023-01-09T01:36:05.983Z,4.58
2023-01-09T01:40:09.092Z,4.47
2023-01-09T01:44:48.144Z,4.48
2023-01-09T01:48:59.579Z,4.56
2023-01-09T01:53:10.084Z,4.38
2023-01-09T01:57:12.081Z,4.41
2023-01-09T02:01:14.408Z,4.36
2023-01-09T02:05:16.238Z,4.23
2023-01-09T02:09:20.381Z,4.20
2023-01-09T02:13:22.642Z,3.98
2023-01-09T02:17:49.088Z,4.01
2023-01-09T02:21:57.453Z,3.97
2023-01-09T02:26:11.127Z,3.97
2023-01-09T02:30:25.649Z,4.05
2023-01-09T02:34:45.774Z,3.96
2023-01-09T02:39:14.526Z,3.95
2023-01-09T02:43:16.683Z,3.92
2023-01-09T02:47:18.060Z,3.96
2023-01-09T02:51:34.241Z,3.87
2023-01-09T02:55:47.214Z,3.86
2023-01-09T03:00:28.383Z,4.03
2023-01-09T03:04:56.325Z,3.77
2023-01-09T03:09:05.269Z,3.85
2023-01-09T03:13:13.581Z,3.86
2023-01-09T03:17:38.794Z,3.86
2023-01-09T03:21:42.129Z,4.06
2023-01-09T03:25:43.592Z,4.17
2023-01-09T03:29:45.074Z,4.11
2023-01-09T03:33:46.555Z,4.08
2023-01-09T03:37:48.023Z,4.38
2023-01-09T03:41:49.479Z,4.24
2023-01-09T03:45:51.007Z,4.26
2023-01-09T03:49:52.465Z,4.43
2023-01-09T03:53:53.945Z,4.39
2023-01-09T03:57:55.463Z,4.33
2023-01-09T04:01:56.996Z,4.49
2023-01-09T04:05:58.460Z,4.53
2023-01-09T04:09:59.848Z,4.49
2023-01-09T04:14:01.299Z,4.67
2023-01-09T04:18:04.368Z,4.64
2023-01-09T04:22:05.763Z,4.54
2023-01-09T04:26:07.927Z,4.63
2023-01-09T04:30:10.047Z,4.70
2023-01-09T04:34:11.507Z,4.61
2023-01-09T04:38:13.083Z,4.69
2023-01-09T04:42:14.610Z,4.55
2023-01-09T04:46:16.093Z,4.63
2023-01-09T04:54:29.855Z,4.59
2023-01-09T04:58:31.289Z,4.63
2023-01-09T05:02:32.755Z,4.68
2023-01-09T05:06:34.931Z,4.80
2023-01-09T05:10:36.395Z,4.78
2023-01-09T05:14:37.862Z,4.69
2023-01-09T05:18:39.451Z,4.62
2023-01-09T05:22:40.904Z,4.63
2023-01-09T05:26:42.402Z,4.60
2023-01-09T05:30:43.988Z,4.56
2023-01-09T05:34:45.466Z,4.79
2023-01-09T05:38:46.926Z,4.89
2023-01-09T05:42:48.380Z,4.88
2023-01-09T05:46:49.865Z,4.79
2023-01-09T05:50:51.537Z,4.78
2023-01-09T05:54:53.072Z,4.82
2023-01-09T05:58:54.527Z,4.83
2023-01-09T06:02:56.132Z,4.84
2023-01-09T06:06:57.695Z,4.89
2023-01-09T06:10:59.199Z,4.78
2023-01-09T06:15:00.741Z,4.82
2023-01-09T06:19:08.525Z,4.88
2023-01-09T06:23:11.666Z,4.89
2023-01-09T06:27:14.500Z,4.95
2023-01-09T06:31:16.004Z,4.90
2023-01-09T06:35:22.353Z,4.85
2023-01-09T06:39:23.838Z,4.86
2023-01-09T06:43:25.362Z,4.97
2023-01-09T06:47:26.862Z,4.85
2023-01-09T06:51:28.292Z,4.94
2023-01-09T06:55:29.889Z,4.88
2023-01-09T06:59:31.349Z,4.77
2023-01-09T07:03:33.835Z,4.82
2023-01-09T07:07:35.436Z,4.94
2023-01-09T07:11:36.882Z,4.94
2023-01-09T07:15:38.531Z,4.84
2023-01-09T07:19:40.940Z,4.97
2023-01-09T07:23:42.387Z,4.87
2023-01-09T07:27:43.878Z,4.78
2023-01-09T07:31:45.404Z,4.88
2023-01-09T07:35:46.925Z,4.84
2023-01-09T07:39:48.478Z,4.90
2023-01-09T07:43:49.895Z,4.72
2023-01-09T07:47:52.287Z,5.00
2023-01-09T07:51:54.437Z,4.97
2023-01-09T07:55:55.879Z,5.03
2023-01-09T07:59:57.352Z,5.14
2023-01-09T08:03:58.848Z,5.18
2023-01-09T08:08:01.878Z,5.11
2023-01-09T08:12:04.229Z,5.24
2023-01-09T08:16:06.043Z,5.29
2023-01-09T08:20:08.191Z,5.41
2023-01-09T08:24:09.886Z,5.43
2023-01-09T08:28:11.355Z,5.57
2023-01-09T08:32:12.875Z,5.70
2023-01-09T08:36:14.384Z,5.45
2023-01-09T08:40:16.943Z,5.51
2023-01-09T08:44:36.730Z,5.51
2023-01-09T08:48:38.153Z,5.33
2023-01-09T08:52:39.574Z,5.22
2023-01-09T08:56:40.999Z,5.11
2023-01-09T09:00:42.562Z,5.32
2023-01-09T09:04:48.004Z,5.24
2023-01-09T09:08:49.485Z,5.34
2023-01-09T09:12:52.793Z,5.31
2023-01-09T09:16:54.432Z,5.49
2023-01-09T09:20:56.032Z,5.46
2023-01-09T09:24:57.462Z,5.38
2023-01-09T09:28:59.056Z,5.27
2023-01-09T09:33:04.219Z,5.47
2023-01-09T09:37:05.741Z,5.50
2023-01-09T09:41:52.181Z,5.55
2023-01-09T09:46:20.146Z,5.89
2023-01-09T09:50:33.515Z,5.79
2023-01-09T09:54:47.283Z,5.74
2023-01-09T09:58:57.057Z,5.97
2023-01-09T10:03:06.215Z,5.86
2023-01-09T10:07:16.891Z,6.12
2023-01-09T10:11:31.892Z,6.16
2023-01-09T10:15:48.068Z,6.25
2023-01-09T10:20:11.631Z,6.38
2023-01-09T10:24:36.872Z,6.28
2023-01-09T10:29:33.849Z,6.43
2023-01-09T10:33:48.008Z,6.45
2023-01-09T10:37:53.379Z,6.52
2023-01-09T10:42:11.233Z,6.42
2023-01-09T10:46:22.913Z,6.44
2023-01-09T10:50:30.455Z,6.48
2023-01-09T10:54:32.305Z,6.43
2023-01-09T10:58:33.991Z,6.58
2023-01-09T11:02:36.232Z,6.71
2023-01-09T11:06:47.549Z,6.63
2023-01-09T11:10:52.488Z,6.60
2023-01-09T11:14:54.150Z,6.68
2023-01-09T11:18:59.159Z,6.78
2023-01-09T11:23:00.606Z,6.77
2023-01-09T11:27:14.017Z,6.63
2023-01-09T11:31:21.850Z,6.77
2023-01-09T11:35:26.475Z,6.82
2023-01-09T11:39:32.504Z,6.85
2023-01-09T11:43:40.634Z,6.97
2023-01-09T11:47:43.231Z,6.97
2023-01-09T11:51:44.801Z,6.83
2023-01-09T11:55:52.396Z,6.74
2023-01-09T12:00:01.446Z,6.89
2023-01-09T12:04:21.404Z,7.06
2023-01-09T12:08:52.185Z,7.12
2023-01-09T12:13:05.417Z,7.43
2023-01-09T12:17:43.874Z,7.19
2023-01-09T12:21:57.491Z,7.10
2023-01-09T12:26:40.925Z,7.11
2023-01-09T12:31:04.275Z,7.00
2023-01-09T12:35:28.960Z,7.17
2023-01-09T12:40:11.452Z,7.37
2023-01-09T12:44:35.507Z,7.26
2023-01-09T12:48:55.383Z,7.25
2023-01-09T12:53:08.939Z,7.51
2023-01-09T12:57:20.906Z,7.77
2023-01-09T13:01:41.500Z,8.36
2023-01-09T13:05:47.145Z,8.87
2023-01-09T13:10:25.620Z,9.22
2023-01-09T13:14:42.258Z,9.18
2023-01-09T13:18:56.035Z,9.39
2023-01-09T13:22:59.184Z,9.74
2023-01-09T13:27:06.686Z,9.57
2023-01-09T13:31:32.387Z,9.70
2023-01-09T13:35:33.908Z,9.86
2023-01-09T13:39:35.734Z,9.98
2023-01-09T13:44:02.112Z,9.56
2023-01-09T13:48:17.390Z,9.28
2023-01-09T13:52:29.865Z,8.44
2023-01-09T13:56:31.411Z,8.28
2023-01-09T14:00:35.668Z,7.89
2023-01-09T14:04:42.857Z,7.67
2023-01-09T14:08:45.613Z,8.02
2023-01-09T14:12:48.274Z,7.71
2023-01-09T14:16:50.104Z,7.87
2023-01-09T14:21:11.912Z,7.92
2023-01-09T14:29:39.031Z,8.12
2023-01-09T14:33:40.751Z,8.12
2023-01-09T14:37:44.047Z,8.23
2023-01-09T14:42:05.606Z,7.83
2023-01-09T14:46:14.400Z,8.05
2023-01-09T14:50:23.569Z,7.99
2023-01-09T14:54:30.455Z,7.58
2023-01-09T14:58:36.207Z,7.80
2023-01-09T15:02:39.578Z,7.69
2023-01-09T15:06:43.315Z,7.58
2023-01-09T15:10:47.255Z,7.75
2023-01-09T15:14:54.186Z,7.78
2023-01-09T15:19:00.511Z,7.97
2023-01-09T15:23:04.190Z,7.78
2023-01-09T15:27:15.556Z,7.38
2023-01-09T15:31:20.288Z,7.24
2023-01-09T15:35:21.900Z,7.14
2023-01-09T15:39:31.311Z,7.22
2023-01-09T15:43:33.310Z,7.01
2023-01-09T15:47:34.795Z,7.30
2023-01-09T15:51:36.451Z,7.31
2023-01-09T15:55:38.482Z,7.22
2023-01-09T15:59:39.989Z,7.09
2023-01-09T16:03:41.467Z,6.80
2023-01-09T16:07:48.044Z,6.98
2023-01-09T16:11:53.118Z,7.12
2023-01-09T16:15:56.182Z,7.18
2023-01-09T16:19:59.491Z,7.28
2023-01-09T16:24:24.336Z,7.11
2023-01-09T16:28:30.708Z,6.89
2023-01-09T16:32:47.313Z,6.96
2023-01-09T16:36:48.864Z,6.84
2023-01-09T16:41:17.823Z,6.83
2023-01-09T16:45:20.660Z,6.74
2023-01-09T16:49:29.288Z,6.76
2023-01-09T16:53:31.920Z,6.63
2023-01-09T16:57:35.066Z,6.66
2023-01-09T17:01:36.730Z,6.65
2023-01-09T17:05:38.269Z,6.86
2023-01-09T17:09:39.839Z,6.70
2023-01-09T17:13:41.258Z,6.64
2023-01-09T17:17:42.793Z,6.64
2023-01-09T17:21:44.463Z,6.42
2023-01-09T17:26:04.307Z,6.30
2023-01-09T17:30:18.284Z,6.32
2023-01-09T17:34:20.887Z,5.99
2023-01-09T17:38:22.417Z,6.13
2023-01-09T17:42:23.840Z,5.88
2023-01-09T17:46:37.132Z,6.03
2023-01-09T17:50:38.574Z,5.90
2023-01-09T17:54:40.626Z,6.08
2023-01-09T17:58:45.479Z,5.87
2023-01-09T18:02:46.960Z,5.83
2023-01-09T18:06:49.469Z,5.76
2023-01-09T18:10:51.029Z,5.68
2023-01-09T18:14:53.881Z,5.68
2023-01-09T18:18:57.669Z,5.84
2023-01-09T18:22:59.356Z,5.69
2023-01-09T18:27:00.785Z,5.70
2023-01-09T18:31:02.197Z,5.73
2023-01-09T18:35:03.962Z,5.60
2023-01-09T18:39:07.075Z,5.60
2023-01-09T18:43:10.267Z,5.49
2023-01-09T18:47:11.688Z,5.61
2023-01-09T18:51:13.123Z,5.48
2023-01-09T18:55:14.851Z,5.48
2023-01-09T18:59:16.366Z,5.65
2023-01-09T19:03:17.825Z,5.62
2023-01-09T19:07:19.462Z,5.70
2023-01-09T19:11:21.043Z,5.83
2023-01-09T19:15:22.573Z,5.96
2023-01-09T19:19:24.032Z,5.99
2023-01-09T19:23:25.685Z,6.07
2023-01-09T19:27:30.345Z,6.05
2023-01-09T19:31:32.226Z,6.11
2023-01-09T19:35:34.428Z,6.20
2023-01-09T19:39:37.315Z,6.16
2023-01-09T19:43:40.530Z,7.03
2023-01-09T19:47:42.572Z,6.79
2023-01-09T19:51:44.624Z,6.51
2023-01-09T19:55:46.096Z,6.62
2023-01-09T19:59:47.528Z,6.76
2023-01-09T20:03:49.742Z,6.89
2023-01-09T20:07:57.746Z,6.58
2023-01-09T20:12:00.115Z,6.81
2023-01-09T20:16:05.580Z,6.80
2023-01-09T20:20:08.380Z,6.39
2023-01-09T20:24:16.607Z,6.35
2023-01-09T20:28:18.074Z,6.44
2023-01-09T20:32:19.770Z,6.32
2023-01-09T20:36:27.208Z,6.28
2023-01-09T20:40:28.745Z,6.37
2023-01-09T20:44:30.315Z,6.48
2023-01-09T20:48:31.869Z,6.33
2023-01-09T20:52:33.384Z,6.24
2023-01-09T20:56:36.194Z,6.11
2023-01-09T21:00:37.818Z,6.04
2023-01-09T21:04:39.312Z,5.90
2023-01-09T21:08:47.762Z,5.91
2023-01-09T21:12:49.290Z,5.86
2023-01-09T21:16:54.428Z,5.79
2023-01-09T21:20:56.253Z,5.72
2023-01-09T21:24:57.890Z,5.56
2023-01-09T21:29:01.390Z,5.80
2023-01-09T21:33:02.866Z,5.63
2023-01-09T21:37:04.345Z,5.65
2023-01-09T21:41:24.120Z,5.78
2023-01-09T21:45:43.933Z,5.65
2023-01-09T21:49:45.546Z,5.47
2023-01-09T21:53:47.006Z,5.68
2023-01-09T21:57:48.477Z,5.67
2023-01-09T22:01:51.064Z,5.52
2023-01-09T22:05:52.548Z,5.68
2023-01-09T22:09:54.039Z,5.70
2023-01-09T22:13:57.361Z,5.79
2023-01-09T22:17:58.829Z,5.66
2023-01-09T22:22:02.546Z,5.68
2023-01-09T22:26:11.234Z,5.93
2023-01-09T22:30:13.034Z,5.94
2023-01-09T22:34:17.204Z,5.69
2023-01-09T22:38:18.659Z,5.35
2023-01-09T22:42:20.142Z,5.67
2023-01-09T22:46:21.626Z,5.42
2023-01-09T22:50:23.784Z,5.65
2023-01-09T22:54:25.226Z,5.85
2023-01-09T22:58:28.240Z,5.42
2023-01-09T23:02:29.760Z,5.36
2023-01-09T23:06:31.435Z,5.47
2023-01-09T23:10:32.879Z,5.51
2023-01-09T23:14:36.988Z,5.48
2023-01-09T23:18:38.405Z,5.58
2023-01-09T23:22:39.954Z,5.54
2023-01-09T23:26:43.456Z,5.49
2023-01-09T23:30:45.483Z,5.48
2023-01-09T23:34:48.886Z,5.43
2023-01-09T23:38:50.384Z,5.79
2023-01-09T23:43:10.254Z,5.65
2023-01-09T23:47:11.751Z,5.68
2023-01-09T23:51:13.198Z,5.61
2023-01-09T23:55:14.844Z,5.83
2023-01-09T23:59:17.890Z,5.46
